createdAt,value
2022-12-06T00:00:46.924Z,101279.22
2022-12-06T00:03:13.867Z,101297.19
2022-12-06T00:05:44.718Z,101287.13
2022-12-06T00:08:12.788Z,101238.63
2022-12-06T00:10:39.261Z,101238.47
2022-12-06T00:13:05.750Z,101205.44
2022-12-06T00:15:36.451Z,101285.44
2022-12-06T00:18:03.656Z,101276.81
2022-12-06T00:20:30.068Z,101295.13
2022-12-06T00:22:56.649Z,101233.16
2022-12-06T00:25:23.037Z,101201.00
2022-12-06T00:27:50.729Z,101290.84
2022-12-06T00:30:17.478Z,101275.19
2022-12-06T00:32:43.888Z,101282.13
2022-12-06T00:35:10.317Z,101289.25
2022-12-06T00:37:37.289Z,101243.97
2022-12-06T00:40:03.959Z,101302.34
2022-12-06T00:42:30.375Z,101283.22
2022-12-06T00:44:56.829Z,101284.16
2022-12-06T00:47:23.285Z,101210.25
2022-12-06T00:49:49.780Z,101274.72
2022-12-06T00:52:16.176Z,101291.06
2022-12-06T00:54:42.684Z,101211.94
2022-12-06T00:57:09.301Z,101259.78
2022-12-06T00:59:35.674Z,101272.00
2022-12-06T01:02:02.112Z,101260.63
2022-12-06T01:04:28.723Z,101185.69
2022-12-06T01:06:55.107Z,101232.78
2022-12-06T01:09:21.572Z,101230.19
2022-12-06T01:11:47.972Z,101190.31
2022-12-06T01:14:14.407Z,101250.31
2022-12-06T01:16:40.939Z,101212.13
2022-12-06T01:19:07.472Z,101166.78
2022-12-06T01:21:34.206Z,101227.84
2022-12-06T01:24:00.648Z,101225.22
2022-12-06T01:26:31.048Z,101265.22
2022-12-06T01:28:58.987Z,101226.03
2022-12-06T01:31:25.687Z,101206.75
2022-12-06T01:33:52.293Z,101317.16
2022-12-06T01:36:25.972Z,101240.75
2022-12-06T01:38:58.293Z,101228.66
2022-12-06T01:41:26.518Z,101253.88
2022-12-06T01:43:53.848Z,101253.06
2022-12-06T01:46:41.532Z,101310.56
2022-12-06T01:49:19.314Z,101303.66
2022-12-06T01:52:01.496Z,101233.09
2022-12-06T01:54:29.591Z,101225.38
2022-12-06T01:56:57.802Z,101254.94
2022-12-06T01:59:25.781Z,101297.59
2022-12-06T02:01:53.297Z,101265.38
2022-12-06T02:04:20.393Z,101191.63
2022-12-06T02:06:47.766Z,101223.81
2022-12-06T02:09:16.487Z,101289.97
2022-12-06T02:11:43.620Z,101276.94
2022-12-06T02:14:15.316Z,101208.09
2022-12-06T02:16:59.713Z,101296.06
2022-12-06T02:19:32.230Z,101284.84
2022-12-06T02:22:16.136Z,101259.63
2022-12-06T02:25:10.528Z,101287.47
2022-12-06T02:27:45.301Z,101165.78
2022-12-06T02:30:18.484Z,101283.16
2022-12-06T02:32:54.657Z,101241.44
2022-12-06T02:35:43.335Z,101271.88
2022-12-06T02:38:19.865Z,101265.75
2022-12-06T02:40:55.008Z,101271.09
2022-12-06T02:43:26.100Z,101278.06
2022-12-06T02:45:56.925Z,101168.53
2022-12-06T02:48:25.719Z,101233.84
2022-12-06T02:50:59.414Z,101263.34
2022-12-06T02:53:29.076Z,101166.91
2022-12-06T02:55:57.099Z,101153.94
2022-12-06T02:58:23.598Z,101193.78
2022-12-06T03:00:59.762Z,101191.16
2022-12-06T03:03:53.816Z,101266.03
2022-12-06T03:06:45.746Z,101255.72
2022-12-06T03:09:29.489Z,101248.63
2022-12-06T03:12:06.677Z,101240.94
2022-12-06T03:14:40.798Z,101175.75
2022-12-06T03:17:07.015Z,101258.38
2022-12-06T03:19:36.306Z,101266.16
2022-12-06T03:22:08.814Z,101243.63
2022-12-06T03:24:38.387Z,101247.91
2022-12-06T03:27:09.849Z,101234.97
2022-12-06T03:29:40.689Z,101229.78
2022-12-06T03:32:10.425Z,101135.09
2022-12-06T03:34:41.397Z,101254.09
2022-12-06T03:37:12.038Z,101221.06
2022-12-06T03:40:01.513Z,101248.97
2022-12-06T03:42:29.112Z,101240.34
2022-12-06T03:44:55.470Z,101229.84
2022-12-06T03:47:40.062Z,101213.41
2022-12-06T03:50:16.676Z,101228.16
2022-12-06T03:52:43.272Z,101149.94
2022-12-06T03:55:09.910Z,101226.44
2022-12-06T03:57:36.371Z,101179.44
2022-12-06T04:00:04.171Z,101216.00
2022-12-06T04:02:30.587Z,101229.81
2022-12-06T04:04:57.940Z,101249.91
2022-12-06T04:07:24.262Z,101202.06
2022-12-06T04:09:56.181Z,101232.53
2022-12-06T04:12:42.628Z,101254.25
2022-12-06T04:15:10.180Z,101220.38
2022-12-06T04:17:58.827Z,101242.97
2022-12-06T04:20:27.270Z,101150.03
2022-12-06T04:23:06.175Z,101128.38
2022-12-06T04:25:34.796Z,101248.22
2022-12-06T04:28:21.764Z,101155.31
2022-12-06T04:31:07.144Z,101236.09
2022-12-06T04:33:52.213Z,101191.78
2022-12-06T04:36:36.989Z,101232.63
2022-12-06T04:39:03.894Z,101224.84
2022-12-06T04:42:05.330Z,101243.03
2022-12-06T04:44:31.721Z,101231.81
2022-12-06T04:46:58.136Z,101215.19
2022-12-06T04:49:26.323Z,101147.53
2022-12-06T04:51:54.126Z,101230.94
2022-12-06T04:54:22.064Z,101149.34
2022-12-06T04:56:48.974Z,101248.41
2022-12-06T04:59:15.439Z,101214.53
2022-12-06T05:01:41.851Z,101127.72
2022-12-06T05:04:10.070Z,101231.97
2022-12-06T05:06:36.665Z,101251.06
2022-12-06T05:09:03.893Z,101129.47
2022-12-06T05:11:30.415Z,101228.44
2022-12-06T05:13:56.770Z,101218.06
2022-12-06T05:16:23.246Z,101212.78
2022-12-06T05:18:49.691Z,101230.19
2022-12-06T05:21:19.284Z,101198.91
2022-12-06T05:23:46.017Z,101175.41
2022-12-06T05:26:18.041Z,101172.84
2022-12-06T05:28:45.773Z,101258.00
2022-12-06T05:31:13.192Z,101242.41
2022-12-06T05:33:39.761Z,101251.88
2022-12-06T05:36:13.013Z,101252.81
2022-12-06T05:38:39.616Z,101228.50
2022-12-06T05:41:06.775Z,101165.09
2022-12-06T05:43:33.356Z,101267.59
2022-12-06T05:45:59.900Z,101152.09
2022-12-06T05:48:26.572Z,101157.38
2022-12-06T05:50:53.663Z,101244.22
2022-12-06T05:53:20.990Z,101231.19
2022-12-06T05:55:47.578Z,101237.28
2022-12-06T05:58:14.655Z,101239.91
2022-12-06T06:00:41.099Z,101239.09
2022-12-06T06:03:07.671Z,101218.22
2022-12-06T06:05:36.341Z,101239.06
2022-12-06T06:08:02.706Z,101214.75
2022-12-06T06:10:29.081Z,101237.31
2022-12-06T06:12:55.521Z,101154.81
2022-12-06T06:15:21.865Z,101221.75
2022-12-06T06:17:48.245Z,101169.56
2022-12-06T06:20:14.681Z,101244.34
2022-12-06T06:22:42.365Z,101235.59
2022-12-06T06:25:09.640Z,101256.50
2022-12-06T06:27:37.691Z,101214.81
2022-12-06T06:30:10.221Z,101166.13
2022-12-06T06:32:37.454Z,101246.09
2022-12-06T06:35:05.190Z,101256.53
2022-12-06T06:37:33.006Z,101133.16
2022-12-06T06:40:00.520Z,101206.13
2022-12-06T06:42:27.357Z,101253.94
2022-12-06T06:44:54.600Z,101222.69
2022-12-06T06:47:22.400Z,101218.34
2022-12-06T06:49:49.052Z,101194.00
2022-12-06T06:52:15.728Z,101204.44
2022-12-06T06:54:42.060Z,101157.59
2022-12-06T06:57:12.854Z,101178.41
2022-12-06T06:59:43.039Z,101195.78
2022-12-06T07:02:13.322Z,101164.50
2022-12-06T07:04:39.929Z,101207.97
2022-12-06T07:07:06.512Z,101181.00
2022-12-06T07:09:33.871Z,101222.72
2022-12-06T07:12:00.534Z,101194.03
2022-12-06T07:14:26.955Z,101167.97
2022-12-06T07:16:53.400Z,101216.63
2022-12-06T07:19:19.790Z,101165.41
2022-12-06T07:21:46.205Z,101109.84
2022-12-06T07:24:12.782Z,101099.44
2022-12-06T07:26:39.129Z,101239.25
2022-12-06T07:29:05.500Z,101253.16
2022-12-06T07:31:33.623Z,101235.81
2022-12-06T07:34:01.425Z,101157.59
2022-12-06T07:36:30.639Z,101163.69
2022-12-06T07:38:58.645Z,101076.06
2022-12-06T07:41:46.193Z,101155.03
2022-12-06T07:44:34.036Z,101253.16
2022-12-06T07:47:00.709Z,101214.94
2022-12-06T07:49:27.155Z,101240.16
2022-12-06T07:51:54.865Z,101256.66
2022-12-06T07:54:21.609Z,101223.63
2022-12-06T07:56:47.941Z,101161.09
2022-12-06T07:59:14.498Z,101239.31
2022-12-06T08:01:41.290Z,101250.66
2022-12-06T08:04:08.085Z,101201.09
2022-12-06T08:06:35.365Z,101235.88
2022-12-06T08:09:01.982Z,101235.84
2022-12-06T08:11:28.721Z,101248.91
2022-12-06T08:13:55.077Z,101176.75
2022-12-06T08:16:21.467Z,101239.31
2022-12-06T08:18:47.871Z,101251.47
2022-12-06T08:21:14.295Z,101241.03
2022-12-06T08:23:40.690Z,101261.91
2022-12-06T08:26:09.965Z,101283.63
2022-12-06T08:28:37.579Z,101234.97
2022-12-06T08:31:09.442Z,101281.00
2022-12-06T08:33:36.631Z,101281.88
2022-12-06T08:36:08.861Z,101246.25
2022-12-06T08:38:37.114Z,101157.72
2022-12-06T08:41:04.866Z,101237.66
2022-12-06T08:43:31.701Z,101289.75
2022-12-06T08:45:58.281Z,101173.38
2022-12-06T08:48:24.658Z,101242.00
2022-12-06T08:50:51.035Z,101260.25
2022-12-06T08:53:17.585Z,101271.56
2022-12-06T08:55:58.741Z,101178.53
2022-12-06T08:58:29.145Z,101225.50
2022-12-06T09:00:55.506Z,101286.28
2022-12-06T09:03:21.943Z,101277.56
2022-12-06T09:05:48.321Z,101256.72
2022-12-06T09:08:14.966Z,101242.84
2022-12-06T09:10:43.029Z,101275.88
2022-12-06T09:13:09.441Z,101270.66
2022-12-06T09:15:37.425Z,101238.50
2022-12-06T09:18:03.969Z,101246.31
2022-12-06T09:20:30.377Z,101220.28
2022-12-06T09:22:57.771Z,101241.09
2022-12-06T09:25:24.175Z,101239.41
2022-12-06T09:27:50.549Z,101194.28
2022-12-06T09:30:17.485Z,101231.63
2022-12-06T09:32:43.951Z,101173.50
2022-12-06T09:35:15.117Z,101276.78
2022-12-06T09:37:42.771Z,101282.84
2022-12-06T09:40:21.294Z,101246.41
2022-12-06T09:42:53.560Z,101312.41
2022-12-06T09:45:50.466Z,101295.91
2022-12-06T09:48:48.751Z,101272.50
2022-12-06T09:51:33.990Z,101322.81
2022-12-06T09:54:33.623Z,101329.78
2022-12-06T09:57:12.075Z,101315.88
2022-12-06T09:59:57.490Z,101317.63
2022-12-06T10:02:36.397Z,101275.91
2022-12-06T10:05:12.028Z,101327.19
2022-12-06T10:08:08.664Z,101316.78
2022-12-06T10:10:53.780Z,101317.63
2022-12-06T10:13:43.626Z,101229.06
2022-12-06T10:16:39.396Z,101320.25
2022-12-06T10:19:35.260Z,101282.94
2022-12-06T10:22:07.676Z,101305.50
2022-12-06T10:24:37.183Z,101305.47
2022-12-06T10:27:20.072Z,101291.59
2022-12-06T10:30:01.779Z,101273.38
2022-12-06T10:32:40.321Z,101298.59
2022-12-06T10:35:35.590Z,101262.09
2022-12-06T10:38:08.085Z,101289.88
2022-12-06T10:40:49.702Z,101278.59
2022-12-06T10:43:23.459Z,101289.00
2022-12-06T10:46:24.042Z,101246.50
2022-12-06T10:49:00.906Z,101245.59
2022-12-06T10:51:43.496Z,101276.00
2022-12-06T10:54:28.065Z,101277.72
2022-12-06T10:56:55.831Z,101279.47
2022-12-06T10:59:32.624Z,101225.66
2022-12-06T11:02:04.750Z,101269.03
2022-12-06T11:04:36.677Z,101260.38
2022-12-06T11:07:13.772Z,101239.56
2022-12-06T11:09:45.977Z,101262.09
2022-12-06T11:12:31.493Z,101254.31
2022-12-06T11:15:18.152Z,101166.66
2022-12-06T11:18:04.382Z,101271.66
2022-12-06T11:20:39.758Z,101272.53
2022-12-06T11:23:24.875Z,101271.63
2022-12-06T11:26:44.508Z,101261.22
2022-12-06T11:29:13.131Z,101168.38
2022-12-06T11:31:52.808Z,101260.38
2022-12-06T11:34:36.266Z,101236.94
2022-12-06T11:37:04.143Z,101166.66
2022-12-06T11:39:32.475Z,101250.81
2022-12-06T11:42:03.057Z,101208.31
2022-12-06T11:44:38.719Z,101278.63
2022-12-06T11:47:06.722Z,101233.44
2022-12-06T11:49:42.379Z,101181.41
2022-12-06T11:52:33.897Z,101233.47
2022-12-06T11:55:05.577Z,101263.84
2022-12-06T11:57:55.342Z,101152.78
2022-12-06T12:00:24.404Z,101269.03
2022-12-06T12:02:54.380Z,101263.84
2022-12-06T12:05:24.520Z,101265.56
2022-12-06T12:08:17.717Z,101262.06
2022-12-06T12:10:46.251Z,101245.53
2022-12-06T12:13:51.123Z,101259.47
2022-12-06T12:16:22.983Z,101254.31
2022-12-06T12:19:19.323Z,101246.50
2022-12-06T12:21:49.626Z,101246.50
2022-12-06T12:25:18.482Z,101249.94
2022-12-06T12:27:40.307Z,101229.94
2022-12-06T12:30:35.171Z,101249.09
2022-12-06T12:33:07.563Z,101240.38
2022-12-06T12:35:35.480Z,101236.94
2022-12-06T12:38:18.286Z,101236.94
2022-12-06T12:40:52.095Z,101195.31
2022-12-06T12:43:29.479Z,101210.03
2022-12-06T12:46:05.234Z,101243.00
2022-12-06T12:48:32.123Z,101236.88
2022-12-06T12:51:01.523Z,101203.91
2022-12-06T12:53:32.156Z,101196.06
2022-12-06T12:56:20.610Z,101202.13
2022-12-06T12:58:49.291Z,101232.56
2022-12-06T13:01:24.891Z,101227.28
2022-12-06T13:03:57.220Z,101146.69
2022-12-06T13:06:45.289Z,101230.81
2022-12-06T13:09:19.963Z,101241.22
2022-12-06T13:11:53.253Z,101197.81
2022-12-06T13:14:22.331Z,101198.63
2022-12-06T13:16:53.304Z,101217.75
2022-12-06T13:19:24.148Z,101229.97
2022-12-06T13:21:51.881Z,101230.75
2022-12-06T13:24:24.435Z,101132.81
2022-12-06T13:26:58.716Z,101220.41
2022-12-06T13:29:28.047Z,101224.75
2022-12-06T13:31:58.158Z,101118.09
2022-12-06T13:34:24.406Z,101223.94
2022-12-06T13:36:53.646Z,101170.13
2022-12-06T13:39:32.301Z,101223.94
2022-12-06T13:42:18.927Z,101187.50
2022-12-06T13:44:48.204Z,101216.94
2022-12-06T13:47:26.669Z,101213.44
2022-12-06T13:50:22.024Z,101214.28
2022-12-06T13:52:48.273Z,101212.53
2022-12-06T13:55:23.872Z,101209.94
2022-12-06T13:57:51.224Z,101207.41
2022-12-06T14:00:29.734Z,101209.97
2022-12-06T14:03:03.412Z,101197.81
2022-12-06T14:08:29.960Z,101212.59
2022-12-06T14:11:15.223Z,101212.59
2022-12-06T14:13:43.627Z,101199.59
2022-12-06T14:16:22.824Z,101163.13
2022-12-06T14:18:50.270Z,101118.09
2022-12-06T14:21:30.768Z,101202.19
2022-12-06T14:23:57.592Z,101216.94
2022-12-06T14:26:27.745Z,101203.97
2022-12-06T14:28:57.113Z,101197.00
2022-12-06T14:31:30.370Z,101210.88
2022-12-06T14:33:57.137Z,101211.75
2022-12-06T14:36:30.372Z,101152.75
2022-12-06T14:39:01.367Z,101138.88
2022-12-06T14:41:53.031Z,101212.59
2022-12-06T14:44:20.943Z,101206.53
2022-12-06T14:46:49.335Z,101208.28
2022-12-06T14:49:37.931Z,101152.78
2022-12-06T14:52:18.178Z,101197.88
2022-12-06T14:54:45.840Z,101178.81
2022-12-06T14:57:24.133Z,101191.81
2022-12-06T15:00:15.154Z,101171.84
2022-12-06T15:03:11.333Z,101171.88
2022-12-06T15:05:44.193Z,101147.59
2022-12-06T15:08:25.885Z,101206.56
2022-12-06T15:10:58.289Z,101184.88
2022-12-06T15:13:25.022Z,101183.13
2022-12-06T15:16:08.022Z,101212.66
2022-12-06T15:18:43.321Z,101156.25
2022-12-06T15:21:14.175Z,101190.06
2022-12-06T15:23:48.302Z,101182.25
2022-12-06T15:26:14.677Z,101216.13
2022-12-06T15:28:41.621Z,101210.88
2022-12-06T15:31:19.101Z,101211.78
2022-12-06T15:33:46.366Z,101222.19
2022-12-06T15:36:18.277Z,101222.19
2022-12-06T15:38:45.102Z,101125.00
2022-12-06T15:41:26.112Z,101218.72
2022-12-06T15:43:53.637Z,101223.06
2022-12-06T15:46:28.548Z,101223.91
2022-12-06T15:48:55.802Z,101162.31
2022-12-06T15:51:27.672Z,101175.31
2022-12-06T15:53:55.918Z,101175.31
2022-12-06T15:56:25.542Z,101074.72
2022-12-06T15:58:51.938Z,101171.84
2022-12-06T16:01:33.083Z,101207.41
2022-12-06T16:03:59.652Z,101076.38
2022-12-06T16:06:27.646Z,101081.56
2022-12-06T16:08:54.247Z,101159.66
2022-12-06T16:11:23.803Z,101204.78
2022-12-06T16:13:50.822Z,101193.53
2022-12-06T16:16:22.105Z,101055.53
2022-12-06T16:18:49.614Z,101136.22
2022-12-06T16:21:34.752Z,101195.25
2022-12-06T16:24:17.997Z,101086.75
2022-12-06T16:26:45.679Z,101172.69
2022-12-06T16:29:19.070Z,101200.47
2022-12-06T16:31:45.636Z,101101.50
2022-12-06T16:34:12.470Z,101046.72
2022-12-06T16:36:58.673Z,101205.63
2022-12-06T16:39:26.277Z,101187.38
2022-12-06T16:41:52.978Z,101172.63
2022-12-06T16:44:19.487Z,101182.16
2022-12-06T16:46:46.445Z,101075.44
2022-12-06T16:52:08.072Z,101036.41
2022-12-06T16:54:34.556Z,101071.09
2022-12-06T16:57:03.455Z,101173.53
2022-12-06T16:59:32.400Z,101076.31
2022-12-06T17:01:59.369Z,101133.56
2022-12-06T17:04:26.653Z,101150.97
2022-12-06T17:06:53.137Z,101177.88
2022-12-06T17:09:19.686Z,101156.19
2022-12-06T17:12:06.035Z,101182.19
2022-12-06T17:14:34.221Z,101160.53
2022-12-06T17:17:03.940Z,101187.41
2022-12-06T17:19:33.126Z,101098.88
2022-12-06T17:22:02.163Z,101160.53
2022-12-06T17:24:28.823Z,101178.75
2022-12-06T17:26:55.767Z,101049.47
2022-12-06T17:29:23.429Z,101056.41
2022-12-06T17:31:49.854Z,101178.78
2022-12-06T17:34:16.651Z,101158.78
2022-12-06T17:36:43.034Z,101167.47
2022-12-06T17:39:10.491Z,101147.53
2022-12-06T17:41:55.626Z,101127.59
2022-12-06T17:44:22.079Z,101165.75
2022-12-06T17:46:48.462Z,101046.00
2022-12-06T17:49:18.256Z,101078.09
2022-12-06T17:51:45.166Z,101062.50
2022-12-06T17:54:12.186Z,101144.06
2022-12-06T17:56:41.329Z,101185.72
2022-12-06T17:59:13.973Z,101176.16
2022-12-06T18:02:06.613Z,101091.97
2022-12-06T18:04:31.392Z,101087.63
2022-12-06T18:06:58.477Z,101146.66
2022-12-06T18:09:25.093Z,101138.84
2022-12-06T18:11:51.472Z,101143.19
2022-12-06T18:14:18.835Z,101124.97
2022-12-06T18:16:46.004Z,101169.22
2022-12-06T18:19:16.222Z,101165.75
2022-12-06T18:21:43.192Z,101043.41
2022-12-06T18:24:21.527Z,101138.84
2022-12-06T18:26:49.539Z,101106.75
2022-12-06T18:29:22.662Z,101098.91
2022-12-06T18:31:50.249Z,101168.38
2022-12-06T18:34:17.365Z,101168.34
2022-12-06T18:36:44.079Z,101062.41
2022-12-06T18:39:15.310Z,101168.34
2022-12-06T18:41:42.953Z,101172.69
2022-12-06T18:44:10.449Z,101149.25
2022-12-06T18:46:38.593Z,101092.81
2022-12-06T18:49:05.085Z,101091.09
2022-12-06T18:51:34.424Z,101168.34
2022-12-06T18:54:02.993Z,101170.06
2022-12-06T18:56:30.241Z,101177.84
2022-12-06T18:59:02.036Z,101177.00
2022-12-06T19:01:31.000Z,101131.81
2022-12-06T19:04:03.068Z,101175.25
2022-12-06T19:06:33.064Z,101157.91
2022-12-06T19:09:06.515Z,101179.59
2022-12-06T19:11:36.582Z,101163.09
2022-12-06T19:14:03.337Z,101149.28
2022-12-06T19:16:34.365Z,101156.19
2022-12-06T19:19:03.423Z,101113.63
2022-12-06T19:21:32.849Z,101048.59
2022-12-06T19:23:59.289Z,101119.75
2022-12-06T19:26:26.653Z,100980.13
2022-12-06T19:28:53.428Z,101144.06
2022-12-06T19:31:22.828Z,101143.19
2022-12-06T19:33:50.546Z,101111.09
2022-12-06T19:36:28.748Z,101116.31
2022-12-06T19:39:06.125Z,101146.66
2022-12-06T19:41:53.204Z,101151.00
2022-12-06T19:44:19.570Z,101160.56
2022-12-06T19:46:46.491Z,101004.41
2022-12-06T19:49:14.181Z,101132.81
2022-12-06T19:51:42.889Z,101151.03
2022-12-06T19:54:11.603Z,101138.84
2022-12-06T19:56:39.240Z,101131.94
2022-12-06T19:59:11.557Z,101124.13
2022-12-06T20:01:40.264Z,101092.03
2022-12-06T20:04:06.894Z,101093.78
2022-12-06T20:06:34.934Z,101092.03
2022-12-06T20:09:01.575Z,101115.44
2022-12-06T20:11:47.096Z,101146.66
2022-12-06T20:14:17.268Z,101126.72
2022-12-06T20:16:44.642Z,101138.00
2022-12-06T20:19:27.820Z,101140.63
2022-12-06T20:21:54.253Z,101103.34
2022-12-06T20:24:21.866Z,101137.19
2022-12-06T20:26:50.143Z,101121.53
2022-12-06T20:29:18.306Z,101149.31
2022-12-06T20:31:45.591Z,101144.09
2022-12-06T20:34:15.393Z,101145.00
2022-12-06T20:36:42.810Z,101138.88
2022-12-06T20:39:19.394Z,101052.13
2022-12-06T20:41:45.746Z,101055.63
2022-12-06T20:44:12.270Z,101068.66
2022-12-06T20:46:38.750Z,101099.84
2022-12-06T20:49:05.640Z,101027.00
2022-12-06T20:51:33.231Z,101131.91
2022-12-06T20:54:02.167Z,101126.75
2022-12-06T20:56:35.377Z,101019.19
2022-12-06T20:59:03.407Z,101126.78
2022-12-06T21:01:36.362Z,101047.00
2022-12-06T21:04:03.243Z,101105.94
2022-12-06T21:06:29.610Z,101087.75
2022-12-06T21:08:56.031Z,101086.00
2022-12-06T21:11:24.523Z,101109.41
2022-12-06T21:13:53.414Z,101066.91
2022-12-06T21:16:26.283Z,101124.16
2022-12-06T21:18:58.748Z,101096.41
2022-12-06T21:21:32.210Z,101061.75
2022-12-06T21:24:00.138Z,101118.09
2022-12-06T21:26:27.131Z,101106.81
2022-12-06T21:28:54.449Z,101073.00
2022-12-06T21:31:21.255Z,101069.53
2022-12-06T21:33:47.601Z,101107.69
2022-12-06T21:36:13.953Z,101043.53
2022-12-06T21:38:40.311Z,101098.13
2022-12-06T21:41:15.119Z,101053.94
2022-12-06T21:43:41.426Z,101026.13
2022-12-06T21:46:12.073Z,101123.28
2022-12-06T21:48:38.591Z,101079.94
2022-12-06T21:51:08.042Z,101008.00
2022-12-06T21:53:34.770Z,101009.69
2022-12-06T21:56:07.299Z,101129.38
2022-12-06T21:58:35.070Z,101063.47
2022-12-06T22:01:06.179Z,101103.34
2022-12-06T22:03:33.063Z,101101.63
2022-12-06T22:06:03.934Z,101069.53
2022-12-06T22:08:30.306Z,101092.06
2022-12-06T22:10:57.305Z,101092.94
2022-12-06T22:13:23.614Z,101104.19
2022-12-06T22:15:50.045Z,101099.88
2022-12-06T22:18:16.468Z,101085.13
2022-12-06T22:20:42.845Z,101086.84
2022-12-06T22:23:09.153Z,101090.34
2022-12-06T22:25:39.198Z,101092.94
2022-12-06T22:28:05.643Z,101098.09
2022-12-06T22:30:31.981Z,101027.88
2022-12-06T22:32:58.283Z,101014.03
2022-12-06T22:35:24.624Z,101017.47
2022-12-06T22:37:50.936Z,101008.81
2022-12-06T22:40:17.246Z,101038.31
2022-12-06T22:42:43.567Z,101078.19
2022-12-06T22:45:10.373Z,101104.19
2022-12-06T22:47:36.705Z,101086.00
2022-12-06T22:50:03.647Z,101078.19
2022-12-06T22:52:30.409Z,101119.81
2022-12-06T22:54:56.778Z,101095.53
2022-12-06T22:57:23.399Z,101015.75
2022-12-06T22:59:49.754Z,101083.41
2022-12-06T23:02:16.181Z,101069.53
2022-12-06T23:04:42.586Z,101089.47
2022-12-06T23:07:09.576Z,101107.69
2022-12-06T23:09:36.026Z,101025.34
2022-12-06T23:12:02.445Z,101086.00
2022-12-06T23:14:28.880Z,100998.41
2022-12-06T23:16:55.272Z,100981.97
2022-12-06T23:19:21.626Z,100961.13
2022-12-06T23:21:48.143Z,101092.06
2022-12-06T23:24:14.824Z,101040.06
2022-12-06T23:26:53.135Z,101067.78
2022-12-06T23:29:21.075Z,101066.06
2022-12-06T23:31:47.577Z,101062.59
2022-12-06T23:34:21.952Z,101101.59
2022-12-06T23:36:49.335Z,101100.75
2022-12-06T23:39:15.730Z,101069.50
2022-12-06T23:41:42.404Z,100967.19
2022-12-06T23:44:11.434Z,100960.28
2022-12-06T23:46:39.720Z,101090.34
2022-12-06T23:49:06.918Z,101045.19
2022-12-06T23:51:38.235Z,101079.94
2022-12-06T23:54:07.252Z,101092.06
2022-12-06T23:56:36.685Z,101057.28
2022-12-06T23:59:04.698Z,101032.22
